sensor_id;sensor_type;location;lat;lon;timestamp;pressure;altitude;pressure_sealevel;temperature;humidity
58239;BME280;44037;55.638;37.356;2023-01-15T00:01:42;99759.09;;;-0.99;88.93
58239;BME280;44037;55.638;37.356;2023-01-15T00:04:11;99765.91;;;-0.98;89.38
58239;BME280;44037;55.638;37.356;2023-01-15T00:06:40;99762.00;;;-0.93;89.33
58239;BME280;44037;55.638;37.356;2023-01-15T00:09:09;99754.63;;;-0.88;89.37
58239;BME280;44037;55.638;37.356;2023-01-15T00:11:39;99768.19;;;-0.88;89.23
58239;BME280;44037;55.638;37.356;2023-01-15T00:14:05;99765.66;;;-0.88;88.90
58239;BME280;44037;55.638;37.356;2023-01-15T00:16:32;99757.16;;;-0.88;89.06
58239;BME280;44037;55.638;37.356;2023-01-15T00:19:00;99751.34;;;-0.86;88.79
58239;BME280;44037;55.638;37.356;2023-01-15T00:21:30;99753.91;;;-0.86;88.64
58239;BME280;44037;55.638;37.356;2023-01-15T00:23:57;99753.81;;;-0.87;88.57
58239;BME280;44037;55.638;37.356;2023-01-15T00:26:42;99749.59;;;-0.87;88.08
58239;BME280;44037;55.638;37.356;2023-01-15T00:29:27;99752.94;;;-0.88;87.93
58239;BME280;44037;55.638;37.356;2023-01-15T00:31:56;99742.59;;;-0.91;88.30
58239;BME280;44037;55.638;37.356;2023-01-15T00:34:24;99746.00;;;-0.90;88.00
58239;BME280;44037;55.638;37.356;2023-01-15T00:36:53;99742.59;;;-0.91;88.31
58239;BME280;44037;55.638;37.356;2023-01-15T00:39:20;99734.19;;;-0.90;88.77
58239;BME280;44037;55.638;37.356;2023-01-15T00:41:48;99737.66;;;-0.88;87.72
58239;BME280;44037;55.638;37.356;2023-01-15T00:44:16;99733.28;;;-0.90;88.12
58239;BME280;44037;55.638;37.356;2023-01-15T00:46:43;99729.09;;;-0.90;87.78
58239;BME280;44037;55.638;37.356;2023-01-15T00:49:10;99724.81;;;-0.91;87.89
58239;BME280;44037;55.638;37.356;2023-01-15T00:51:37;99720.50;;;-0.92;87.71
58239;BME280;44037;55.638;37.356;2023-01-15T00:54:06;99712.09;;;-0.91;87.79
58239;BME280;44037;55.638;37.356;2023-01-15T00:56:33;99718.13;;;-0.89;88.28
58239;BME280;44037;55.638;37.356;2023-01-15T00:59:01;99722.41;;;-0.88;87.98
58239;BME280;44037;55.638;37.356;2023-01-15T01:01:28;99713.06;;;-0.89;87.61
58239;BME280;44037;55.638;37.356;2023-01-15T01:03:55;99719.72;;;-0.91;87.79
58239;BME280;44037;55.638;37.356;2023-01-15T01:06:22;99711.28;;;-0.90;87.63
58239;BME280;44037;55.638;37.356;2023-01-15T01:08:49;99720.50;;;-0.92;87.79
58239;BME280;44037;55.638;37.356;2023-01-15T01:11:20;99721.38;;;-0.91;87.42
58239;BME280;44037;55.638;37.356;2023-01-15T01:13:48;99717.97;;;-0.92;87.35
58239;BME280;44037;55.638;37.356;2023-01-15T01:16:27;99712.69;;;-0.95;87.49
58239;BME280;44037;55.638;37.356;2023-01-15T01:18:55;99713.59;;;-0.95;87.39
58239;BME280;44037;55.638;37.356;2023-01-15T01:21:23;99712.50;;;-0.98;87.15
58239;BME280;44037;55.638;37.356;2023-01-15T01:23:51;99716.81;;;-0.97;87.40
58239;BME280;44037;55.638;37.356;2023-01-15T01:26:19;99711.66;;;-0.99;86.91
58239;BME280;44037;55.638;37.356;2023-01-15T01:28:51;99713.28;;;-0.99;86.97
58239;BME280;44037;55.638;37.356;2023-01-15T01:31:19;99713.22;;;-1.01;87.29
58239;BME280;44037;55.638;37.356;2023-01-15T01:33:47;99719.16;;;-1.00;87.02
58239;BME280;44037;55.638;37.356;2023-01-15T01:36:15;99719.47;;;-0.96;87.43
58239;BME280;44037;55.638;37.356;2023-01-15T01:38:42;99716.19;;;-0.93;87.90
58239;BME280;44037;55.638;37.356;2023-01-15T01:41:09;99716.38;;;-0.90;87.26
58239;BME280;44037;55.638;37.356;2023-01-15T01:43:54;99713.84;;;-0.90;87.74
58239;BME280;44037;55.638;37.356;2023-01-15T01:46:22;99703.47;;;-0.93;87.36
58239;BME280;44037;55.638;37.356;2023-01-15T01:48:51;99718.75;;;-0.93;86.81
58239;BME280;44037;55.638;37.356;2023-01-15T01:51:21;99711.03;;;-0.95;86.73
58239;BME280;44037;55.638;37.356;2023-01-15T01:53:50;99722.94;;;-0.94;87.22
58239;BME280;44037;55.638;37.356;2023-01-15T01:56:17;99712.09;;;-0.91;87.50
58239;BME280;44037;55.638;37.356;2023-01-15T01:58:46;99705.41;;;-0.89;87.41
58239;BME280;44037;55.638;37.356;2023-01-15T02:01:16;99707.13;;;-0.88;86.76
58239;BME280;44037;55.638;37.356;2023-01-15T02:03:43;99703.66;;;-0.90;86.85
58239;BME280;44037;55.638;37.356;2023-01-15T02:06:12;99710.31;;;-0.92;86.65
58239;BME280;44037;55.638;37.356;2023-01-15T02:08:40;99708.56;;;-0.93;87.01
58239;BME280;44037;55.638;37.356;2023-01-15T02:11:13;99694.16;;;-0.93;86.50
58239;BME280;44037;55.638;37.356;2023-01-15T02:13:43;99691.56;;;-0.94;86.54
58239;BME280;44037;55.638;37.356;2023-01-15T02:16:23;99703.31;;;-0.96;86.68
58239;BME280;44037;55.638;37.356;2023-01-15T02:18:57;99703.47;;;-0.93;86.72
58239;BME280;44037;55.638;37.356;2023-01-15T02:21:33;99694.03;;;-0.96;86.21
58239;BME280;44037;55.638;37.356;2023-01-15T02:24:08;99698.22;;;-0.96;86.49
58239;BME280;44037;55.638;37.356;2023-01-15T02:27:02;99693.72;;;-1.00;86.31
58239;BME280;44037;55.638;37.356;2023-01-15T02:29:38;99695.34;;;-1.02;86.28
58239;BME280;44037;55.638;37.356;2023-01-15T02:32:09;99708.06;;;-1.02;87.04
58239;BME280;44037;55.638;37.356;2023-01-15T02:34:43;99699.78;;;-0.98;86.92
58239;BME280;44037;55.638;37.356;2023-01-15T02:37:15;99695.78;;;-0.95;86.64
58239;BME280;44037;55.638;37.356;2023-01-15T02:39:46;99691.56;;;-0.94;87.11
58239;BME280;44037;55.638;37.356;2023-01-15T02:42:16;99692.41;;;-0.94;86.86
58239;BME280;44037;55.638;37.356;2023-01-15T02:44:47;99686.47;;;-0.94;86.59
58239;BME280;44037;55.638;37.356;2023-01-15T02:47:16;99688.03;;;-0.96;86.69
58239;BME280;44037;55.638;37.356;2023-01-15T02:49:46;99684.63;;;-0.97;86.60
58239;BME280;44037;55.638;37.356;2023-01-15T02:52:17;99682.88;;;-0.98;86.56
58239;BME280;44037;55.638;37.356;2023-01-15T02:54:47;99690.59;;;-0.96;86.27
58239;BME280;44037;55.638;37.356;2023-01-15T02:57:17;99696.47;;;-0.97;86.48
58239;BME280;44037;55.638;37.356;2023-01-15T02:59:47;99696.47;;;-0.97;86.35
58239;BME280;44037;55.638;37.356;2023-01-15T03:02:19;99689.72;;;-0.97;86.74
58239;BME280;44037;55.638;37.356;2023-01-15T03:04:51;99691.38;;;-0.97;86.47
58239;BME280;44037;55.638;37.356;2023-01-15T03:07:22;99689.78;;;-0.95;86.99
58239;BME280;44037;55.638;37.356;2023-01-15T03:09:51;99684.78;;;-0.94;86.27
58239;BME280;44037;55.638;37.356;2023-01-15T03:12:24;99697.25;;;-0.98;86.27
58239;BME280;44037;55.638;37.356;2023-01-15T03:15:01;99695.50;;;-0.99;86.58
58239;BME280;44037;55.638;37.356;2023-01-15T03:17:34;99705.78;;;-0.98;86.92
58239;BME280;44037;55.638;37.356;2023-01-15T03:20:06;99712.69;;;-0.95;86.85
58239;BME280;44037;55.638;37.356;2023-01-15T03:22:37;99708.56;;;-0.93;86.63
58239;BME280;44037;55.638;37.356;2023-01-15T03:25:08;99717.97;;;-0.92;86.70
58239;BME280;44037;55.638;37.356;2023-01-15T03:27:37;99709.59;;;-0.89;86.80
58239;BME280;44037;55.638;37.356;2023-01-15T03:30:07;99710.50;;;-0.89;86.58
58239;BME280;44037;55.638;37.356;2023-01-15T03:32:34;99699.44;;;-0.89;86.27
58239;BME280;44037;55.638;37.356;2023-01-15T03:35:03;99701.00;;;-0.91;86.50
58239;BME280;44037;55.638;37.356;2023-01-15T03:37:31;99701.13;;;-0.90;86.72
58239;BME280;44037;55.638;37.356;2023-01-15T03:39:58;99703.66;;;-0.90;86.14
58239;BME280;44037;55.638;37.356;2023-01-15T03:42:35;99710.50;;;-0.89;86.50
58239;BME280;44037;55.638;37.356;2023-01-15T03:45:11;99711.28;;;-0.90;86.53
58239;BME280;44037;55.638;37.356;2023-01-15T03:47:48;99708.75;;;-0.90;86.55
58239;BME280;44037;55.638;37.356;2023-01-15T03:50:25;99714.88;;;-0.86;86.54
58239;BME280;44037;55.638;37.356;2023-01-15T03:52:59;99705.56;;;-0.86;86.91
58239;BME280;44037;55.638;37.356;2023-01-15T03:55:37;99693.81;;;-0.84;86.56
58239;BME280;44037;55.638;37.356;2023-01-15T03:58:09;99702.06;;;-0.88;86.21
58239;BME280;44037;55.638;37.356;2023-01-15T04:00:43;99696.81;;;-0.91;86.20
58239;BME280;44037;55.638;37.356;2023-01-15T04:03:13;99703.47;;;-0.93;86.35
58239;BME280;44037;55.638;37.356;2023-01-15T04:05:42;99701.72;;;-0.94;85.97
58239;BME280;44037;55.638;37.356;2023-01-15T04:08:11;99709.97;;;-0.98;85.75
58239;BME280;44037;55.638;37.356;2023-01-15T04:10:50;99715.06;;;-0.98;85.94
58239;BME280;44037;55.638;37.356;2023-01-15T04:13:17;99710.06;;;-0.97;86.56
58239;BME280;44037;55.638;37.356;2023-01-15T04:15:45;99705.94;;;-0.95;86.90
58239;BME280;44037;55.638;37.356;2023-01-15T04:18:13;99700.75;;;-0.96;86.60
58239;BME280;44037;55.638;37.356;2023-01-15T04:20:40;99712.69;;;-0.95;86.87
58239;BME280;44037;55.638;37.356;2023-01-15T04:23:07;99710.22;;;-0.94;86.83
58239;BME280;44037;55.638;37.356;2023-01-15T04:25:34;99715.50;;;-0.90;86.99
58239;BME280;44037;55.638;37.356;2023-01-15T04:28:01;99703.56;;;-0.91;86.89
58239;BME280;44037;55.638;37.356;2023-01-15T04:30:28;99712.16;;;-0.89;87.07
58239;BME280;44037;55.638;37.356;2023-01-15T04:32:57;99718.13;;;-0.89;87.24
58239;BME280;44037;55.638;37.356;2023-01-15T04:35:24;99709.59;;;-0.89;86.79
58239;BME280;44037;55.638;37.356;2023-01-15T04:37:54;99706.34;;;-0.87;86.92
58239;BME280;44037;55.638;37.356;2023-01-15T04:40:21;99705.56;;;-0.86;87.24
58239;BME280;44037;55.638;37.356;2023-01-15T04:43:07;99700.66;;;-0.83;87.19
58239;BME280;44037;55.638;37.356;2023-01-15T04:46:00;99698.19;;;-0.81;87.08
58239;BME280;44037;55.638;37.356;2023-01-15T04:48:28;99708.34;;;-0.81;87.02
58239;BME280;44037;55.638;37.356;2023-01-15T04:50:56;99713.44;;;-0.81;87.12
58239;BME280;44037;55.638;37.356;2023-01-15T04:53:24;99719.06;;;-0.87;87.17
58239;BME280;44037;55.638;37.356;2023-01-15T04:55:52;99723.22;;;-0.89;87.01
58239;BME280;44037;55.638;37.356;2023-01-15T04:58:25;99715.50;;;-0.90;87.12
58239;BME280;44037;55.638;37.356;2023-01-15T05:00:52;99701.13;;;-0.90;87.62
58239;BME280;44037;55.638;37.356;2023-01-15T05:03:19;99696.72;;;-0.93;88.03
58239;BME280;44037;55.638;37.356;2023-01-15T05:05:47;99690.84;;;-0.91;88.02
58239;BME280;44037;55.638;37.356;2023-01-15T05:08:15;99688.22;;;-0.93;87.99
58239;BME280;44037;55.638;37.356;2023-01-15T05:10:42;99695.06;;;-0.92;88.56
58239;BME280;44037;55.638;37.356;2023-01-15T05:13:09;99694.28;;;-0.91;88.41
58239;BME280;44037;55.638;37.356;2023-01-15T05:15:37;99685.94;;;-0.88;88.43
58239;BME280;44037;55.638;37.356;2023-01-15T05:18:05;99690.94;;;-0.90;88.29
58239;BME280;44037;55.638;37.356;2023-01-15T05:20:35;99688.22;;;-0.93;88.59
58239;BME280;44037;55.638;37.356;2023-01-15T05:23:03;99685.59;;;-0.95;88.30
58239;BME280;44037;55.638;37.356;2023-01-15T05:25:30;99689.78;;;-0.95;88.62
58239;BME280;44037;55.638;37.356;2023-01-15T05:27:57;99689.88;;;-0.94;88.51
58239;BME280;44037;55.638;37.356;2023-01-15T05:30:24;99688.22;;;-0.93;88.96
58239;BME280;44037;55.638;37.356;2023-01-15T05:32:51;99684.72;;;-0.95;88.65
58239;BME280;44037;55.638;37.356;2023-01-15T05:35:18;99682.94;;;-0.96;88.70
58239;BME280;44037;55.638;37.356;2023-01-15T05:37:45;99686.47;;;-0.94;88.79
58239;BME280;44037;55.638;37.356;2023-01-15T05:40:14;99684.72;;;-0.95;89.03
58239;BME280;44037;55.638;37.356;2023-01-15T05:42:41;99688.22;;;-0.93;89.04
58239;BME280;44037;55.638;37.356;2023-01-15T05:45:08;99685.94;;;-0.88;89.45
58239;BME280;44037;55.638;37.356;2023-01-15T05:47:35;99682.53;;;-0.89;88.94
58239;BME280;44037;55.638;37.356;2023-01-15T05:50:03;99674.72;;;-0.92;88.80
58239;BME280;44037;55.638;37.356;2023-01-15T05:52:30;99679.00;;;-0.91;88.94
58239;BME280;44037;55.638;37.356;2023-01-15T05:54:57;99688.41;;;-0.90;88.90
58239;BME280;44037;55.638;37.356;2023-01-15T05:57:26;99678.22;;;-0.90;88.68
58239;BME280;44037;55.638;37.356;2023-01-15T05:59:53;99678.28;;;-0.88;88.62
58239;BME280;44037;55.638;37.356;2023-01-15T06:02:21;99677.44;;;-0.89;88.64
58239;BME280;44037;55.638;37.356;2023-01-15T06:04:48;99674.16;;;-0.86;88.23
58239;BME280;44037;55.638;37.356;2023-01-15T06:07:15;99679.34;;;-0.85;88.90
58239;BME280;44037;55.638;37.356;2023-01-15T06:09:43;99681.09;;;-0.84;88.61
58239;BME280;44037;55.638;37.356;2023-01-15T06:12:10;99686.19;;;-0.84;88.45
58239;BME280;44037;55.638;37.356;2023-01-15T06:14:38;99685.38;;;-0.83;88.43
58239;BME280;44037;55.638;37.356;2023-01-15T06:17:05;99675.47;;;-0.78;88.37
58239;BME280;44037;55.638;37.356;2023-01-15T06:19:32;99680.66;;;-0.76;88.38
58239;BME280;44037;55.638;37.356;2023-01-15T06:21:59;99685.88;;;-0.73;88.35
58239;BME280;44037;55.638;37.356;2023-01-15T06:24:28;99689.22;;;-0.74;88.19
58239;BME280;44037;55.638;37.356;2023-01-15T06:26:55;99692.72;;;-0.72;88.25
58239;BME280;44037;55.638;37.356;2023-01-15T06:29:22;99702.13;;;-0.71;87.86
58239;BME280;44037;55.638;37.356;2023-01-15T06:31:50;99702.91;;;-0.72;88.03
58239;BME280;44037;55.638;37.356;2023-01-15T06:34:17;99709.16;;;-0.67;87.77
58239;BME280;44037;55.638;37.356;2023-01-15T06:36:44;99703.25;;;-0.66;87.64
58239;BME280;44037;55.638;37.356;2023-01-15T06:39:11;99706.59;;;-0.67;87.42
58239;BME280;44037;55.638;37.356;2023-01-15T06:41:38;99702.38;;;-0.67;87.32
58239;BME280;44037;55.638;37.356;2023-01-15T06:44:23;99702.63;;;-0.62;87.66
58239;BME280;44037;55.638;37.356;2023-01-15T06:47:12;99700.25;;;-0.59;87.30
58239;BME280;44037;55.638;37.356;2023-01-15T06:49:47;99709.72;;;-0.56;87.22
58239;BME280;44037;55.638;37.356;2023-01-15T06:52:14;99709.81;;;-0.55;87.11
58239;BME280;44037;55.638;37.356;2023-01-15T06:54:41;99714.28;;;-0.51;87.14
58239;BME280;44037;55.638;37.356;2023-01-15T06:57:08;99706.00;;;-0.47;87.05
58239;BME280;44037;55.638;37.356;2023-01-15T06:59:35;99706.91;;;-0.46;86.51
58239;BME280;44037;55.638;37.356;2023-01-15T07:02:02;99705.16;;;-0.47;86.53
58239;BME280;44037;55.638;37.356;2023-01-15T07:04:31;99687.22;;;-0.49;85.78
58239;BME280;44037;55.638;37.356;2023-01-15T07:06:58;99695.34;;;-0.56;85.46
58239;BME280;44037;55.638;37.356;2023-01-15T07:09:25;99697.72;;;-0.59;85.46
58239;BME280;44037;55.638;37.356;2023-01-15T07:11:52;99699.38;;;-0.59;85.83
58239;BME280;44037;55.638;37.356;2023-01-15T07:14:21;99701.16;;;-0.58;85.38
58239;BME280;44037;55.638;37.356;2023-01-15T07:16:49;99699.47;;;-0.58;85.74
58239;BME280;44037;55.638;37.356;2023-01-15T07:19:17;99701.22;;;-0.57;85.92
58239;BME280;44037;55.638;37.356;2023-01-15T07:21:46;99702.25;;;-0.53;85.67
58239;BME280;44037;55.638;37.356;2023-01-15T07:24:15;99696.47;;;-0.51;85.44
58239;BME280;44037;55.638;37.356;2023-01-15T07:26:43;99697.41;;;-0.49;85.29
58239;BME280;44037;55.638;37.356;2023-01-15T07:29:11;99704.13;;;-0.51;85.16
58239;BME280;44037;55.638;37.356;2023-01-15T07:31:38;99699.16;;;-0.48;85.16
58239;BME280;44037;55.638;37.356;2023-01-15T07:34:05;99703.41;;;-0.48;85.45
58239;BME280;44037;55.638;37.356;2023-01-15T07:36:33;99714.63;;;-0.44;85.39
58239;BME280;44037;55.638;37.356;2023-01-15T07:39:02;99702.91;;;-0.41;85.41
58239;BME280;44037;55.638;37.356;2023-01-15T07:41:29;99714.97;;;-0.38;84.81
58239;BME280;44037;55.638;37.356;2023-01-15T07:44:14;99708.00;;;-0.41;84.58
58239;BME280;44037;55.638;37.356;2023-01-15T07:46:58;99700.53;;;-0.38;84.82
58239;BME280;44037;55.638;37.356;2023-01-15T07:49:43;99698.97;;;-0.36;84.74
58239;BME280;44037;55.638;37.356;2023-01-15T07:52:14;99694.91;;;-0.32;84.78
58239;BME280;44037;55.638;37.356;2023-01-15T07:54:43;99689.03;;;-0.31;84.18
58239;BME280;44037;55.638;37.356;2023-01-15T07:57:10;99687.44;;;-0.29;83.89
58239;BME280;44037;55.638;37.356;2023-01-15T07:59:39;99689.97;;;-0.29;83.85
58239;BME280;44037;55.638;37.356;2023-01-15T08:02:06;99679.06;;;-0.26;83.75
58239;BME280;44037;55.638;37.356;2023-01-15T08:04:34;99686.78;;;-0.25;83.65
58239;BME280;44037;55.638;37.356;2023-01-15T08:07:02;99685.06;;;-0.26;83.37
58239;BME280;44037;55.638;37.356;2023-01-15T08:09:29;99686.00;;;-0.24;83.46
58239;BME280;44037;55.638;37.356;2023-01-15T08:11:59;99691.25;;;-0.21;83.59
58239;BME280;44037;55.638;37.356;2023-01-15T08:14:44;99680.44;;;-0.17;83.47
58239;BME280;44037;55.638;37.356;2023-01-15T08:17:31;99693.34;;;-0.13;83.25
58239;BME280;44037;55.638;37.356;2023-01-15T08:19:59;99688.41;;;-0.10;83.40
58239;BME280;44037;55.638;37.356;2023-01-15T08:22:26;99682.59;;;-0.08;82.98
58239;BME280;44037;55.638;37.356;2023-01-15T08:24:53;99688.56;;;-0.07;82.84
58239;BME280;44037;55.638;37.356;2023-01-15T08:27:21;99694.78;;;-0.02;83.08
58239;BME280;44037;55.638;37.356;2023-01-15T08:29:48;99699.16;;;0.01;82.71
58239;BME280;44037;55.638;37.356;2023-01-15T08:32:16;99690.00;;;0.04;82.74
58239;BME280;44037;55.638;37.356;2023-01-15T08:34:43;99690.88;;;0.05;82.60
58239;BME280;44037;55.638;37.356;2023-01-15T08:37:10;99686.03;;;0.09;82.74
58239;BME280;44037;55.638;37.356;2023-01-15T08:39:37;99685.69;;;0.20;82.60
58239;BME280;44037;55.638;37.356;2023-01-15T08:42:04;99684.28;;;0.25;81.69
58239;BME280;44037;55.638;37.356;2023-01-15T08:44:33;99689.38;;;0.25;81.07
58239;BME280;44037;55.638;37.356;2023-01-15T08:47:00;99686.81;;;0.25;81.03
58239;BME280;44037;55.638;37.356;2023-01-15T08:49:27;99680.03;;;0.25;80.80
58239;BME280;44037;55.638;37.356;2023-01-15T08:51:54;99680.03;;;0.25;80.94
58239;BME280;44037;55.638;37.356;2023-01-15T08:54:22;99680.03;;;0.25;80.93
58239;BME280;44037;55.638;37.356;2023-01-15T08:56:50;99677.56;;;0.27;80.90
58239;BME280;44037;55.638;37.356;2023-01-15T08:59:17;99670.00;;;0.28;80.89
58239;BME280;44037;55.638;37.356;2023-01-15T09:01:45;99674.31;;;0.29;80.70
58239;BME280;44037;55.638;37.356;2023-01-15T09:04:13;99656.69;;;0.34;80.40
58239;BME280;44037;55.638;37.356;2023-01-15T09:06:41;99659.31;;;0.36;80.26
58239;BME280;44037;55.638;37.356;2023-01-15T09:09:08;99667.84;;;0.36;79.88
58239;BME280;44037;55.638;37.356;2023-01-15T09:11:36;99661.97;;;0.37;79.42
58239;BME280;44037;55.638;37.356;2023-01-15T09:14:05;99665.38;;;0.38;79.50
58239;BME280;44037;55.638;37.356;2023-01-15T09:16:32;99662.97;;;0.41;80.06
58239;BME280;44037;55.638;37.356;2023-01-15T09:19:01;99659.75;;;0.45;79.74
58239;BME280;44037;55.638;37.356;2023-01-15T09:21:28;99655.50;;;0.44;79.83
58239;BME280;44037;55.638;37.356;2023-01-15T09:23:55;99656.34;;;0.44;79.40
58239;BME280;44037;55.638;37.356;2023-01-15T09:26:28;99660.66;;;0.45;79.65
58239;BME280;44037;55.638;37.356;2023-01-15T09:28:56;99649.56;;;0.45;79.29
58239;BME280;44037;55.638;37.356;2023-01-15T09:31:23;99654.59;;;0.43;78.99
58239;BME280;44037;55.638;37.356;2023-01-15T09:33:50;99659.75;;;0.45;79.07
58239;BME280;44037;55.638;37.356;2023-01-15T09:36:22;99660.72;;;0.47;79.06
58239;BME280;44037;55.638;37.356;2023-01-15T09:38:49;99648.06;;;0.49;78.50
58239;BME280;44037;55.638;37.356;2023-01-15T09:41:17;99650.63;;;0.49;78.25
58239;BME280;44037;55.638;37.356;2023-01-15T09:44:11;99647.19;;;0.48;78.12
58239;BME280;44037;55.638;37.356;2023-01-15T09:46:52;99641.13;;;0.46;78.41
58239;BME280;44037;55.638;37.356;2023-01-15T09:49:31;99646.31;;;0.48;78.33
58239;BME280;44037;55.638;37.356;2023-01-15T09:52:07;99644.78;;;0.51;78.57
58239;BME280;44037;55.638;37.356;2023-01-15T09:54:47;99635.38;;;0.50;77.72
58239;BME280;44037;55.638;37.356;2023-01-15T09:57:18;99629.28;;;0.47;78.37
58239;BME280;44037;55.638;37.356;2023-01-15T09:59:49;99641.06;;;0.44;78.31
58239;BME280;44037;55.638;37.356;2023-01-15T10:02:23;99642.66;;;0.42;77.74
58239;BME280;44037;55.638;37.356;2023-01-15T10:04:53;99645.84;;;0.38;78.03
58239;BME280;44037;55.638;37.356;2023-01-15T10:07:28;99644.97;;;0.38;77.63
58239;BME280;44037;55.638;37.356;2023-01-15T10:10:02;99649.22;;;0.37;77.81
58239;BME280;44037;55.638;37.356;2023-01-15T10:12:30;99642.50;;;0.39;78.36
58239;BME280;44037;55.638;37.356;2023-01-15T10:15:09;99652.84;;;0.42;78.29
58239;BME280;44037;55.638;37.356;2023-01-15T10:17:41;99651.25;;;0.44;77.92
58239;BME280;44037;55.638;37.356;2023-01-15T10:20:13;99643.53;;;0.43;77.66
58239;BME280;44037;55.638;37.356;2023-01-15T10:23:01;99641.69;;;0.40;77.45
58239;BME280;44037;55.638;37.356;2023-01-15T10:25:39;99634.03;;;0.40;77.27
58239;BME280;44037;55.638;37.356;2023-01-15T10:28:16;99638.19;;;0.38;77.43
58239;BME280;44037;55.638;37.356;2023-01-15T10:30:47;99633.91;;;0.37;77.43
58239;BME280;44037;55.638;37.356;2023-01-15T10:33:29;99635.81;;;0.41;77.69
58239;BME280;44037;55.638;37.356;2023-01-15T10:36:04;99632.56;;;0.44;77.52
58239;BME280;44037;55.638;37.356;2023-01-15T10:38:41;99633.41;;;0.44;77.35
58239;BME280;44037;55.638;37.356;2023-01-15T10:41:25;99634.38;;;0.47;77.76
58239;BME280;44037;55.638;37.356;2023-01-15T10:43:58;99633.63;;;0.49;77.33
58239;BME280;44037;55.638;37.356;2023-01-15T10:46:29;99628.59;;;0.51;76.98
58239;BME280;44037;55.638;37.356;2023-01-15T10:49:01;99625.91;;;0.48;76.93
58239;BME280;44037;55.638;37.356;2023-01-15T10:51:35;99626.78;;;0.48;76.60
58239;BME280;44037;55.638;37.356;2023-01-15T10:54:07;99615.56;;;0.44;76.51
58239;BME280;44037;55.638;37.356;2023-01-15T10:56:43;99611.25;;;0.43;76.58
58239;BME280;44037;55.638;37.356;2023-01-15T10:59:16;99605.59;;;0.49;76.76
58239;BME280;44037;55.638;37.356;2023-01-15T11:01:47;99601.38;;;0.50;76.69
58239;BME280;44037;55.638;37.356;2023-01-15T11:04:17;99588.84;;;0.54;76.82
58239;BME280;44037;55.638;37.356;2023-01-15T11:06:44;99594.06;;;0.57;76.74
58239;BME280;44037;55.638;37.356;2023-01-15T11:09:18;99588.28;;;0.60;76.42
58239;BME280;44037;55.638;37.356;2023-01-15T11:11:48;99591.78;;;0.62;76.64
58239;BME280;44037;55.638;37.356;2023-01-15T11:14:42;99591.09;;;0.66;76.63
58239;BME280;44037;55.638;37.356;2023-01-15T11:17:31;99584.47;;;0.70;76.58
58239;BME280;44037;55.638;37.356;2023-01-15T11:20:26;99579.47;;;0.71;76.17
58239;BME280;44037;55.638;37.356;2023-01-15T11:22:54;99577.56;;;0.67;75.62
58239;BME280;44037;55.638;37.356;2023-01-15T11:25:27;99576.22;;;0.57;76.23
58239;BME280;44037;55.638;37.356;2023-01-15T11:27:56;99584.56;;;0.53;75.87
58239;BME280;44037;55.638;37.356;2023-01-15T11:30:25;99590.94;;;0.45;75.80
58239;BME280;44037;55.638;37.356;2023-01-15T11:32:54;99592.31;;;0.38;76.00
58239;BME280;44037;55.638;37.356;2023-01-15T11:35:22;99589.47;;;0.32;76.08
58239;BME280;44037;55.638;37.356;2023-01-15T11:37:59;99587.56;;;0.28;76.20
58239;BME280;44037;55.638;37.356;2023-01-15T11:40:28;99578.16;;;0.27;76.49
58239;BME280;44037;55.638;37.356;2023-01-15T11:42:55;99574.75;;;0.26;76.70
58239;BME280;44037;55.638;37.356;2023-01-15T11:45:46;99572.13;;;0.25;76.27
58239;BME280;44037;55.638;37.356;2023-01-15T11:48:34;99563.53;;;0.23;76.58
58239;BME280;44037;55.638;37.356;2023-01-15T11:51:21;99559.13;;;0.20;76.51
58239;BME280;44037;55.638;37.356;2023-01-15T11:53:50;99561.63;;;0.19;76.78
58239;BME280;44037;55.638;37.356;2023-01-15T11:56:24;99559.06;;;0.19;76.62
58239;BME280;44037;55.638;37.356;2023-01-15T11:58:53;99546.34;;;0.19;76.34
58239;BME280;44037;55.638;37.356;2023-01-15T12:01:23;99552.44;;;0.22;76.59
58239;BME280;44037;55.638;37.356;2023-01-15T12:03:52;99551.00;;;0.27;77.07
58239;BME280;44037;55.638;37.356;2023-01-15T12:06:20;99553.63;;;0.29;76.92
58239;BME280;44037;55.638;37.356;2023-01-15T12:08:50;99546.06;;;0.30;76.77
58239;BME280;44037;55.638;37.356;2023-01-15T12:11:38;99556.97;;;0.28;76.09
58239;BME280;44037;55.638;37.356;2023-01-15T12:14:26;99557.72;;;0.25;76.63
58239;BME280;44037;55.638;37.356;2023-01-15T12:17:01;99556.97;;;0.28;76.88
58239;BME280;44037;55.638;37.356;2023-01-15T12:19:38;99550.13;;;0.27;76.60
58239;BME280;44037;55.638;37.356;2023-01-15T12:22:20;99556.84;;;0.25;76.83
58239;BME280;44037;55.638;37.356;2023-01-15T12:25:06;99563.38;;;0.20;76.42
58239;BME280;44037;55.638;37.356;2023-01-15T12:27:52;99569.09;;;0.15;76.23
58239;BME280;44037;55.638;37.356;2023-01-15T12:30:27;99569.06;;;0.14;76.94
58239;BME280;44037;55.638;37.356;2023-01-15T12:33:03;99565.53;;;0.12;76.55
58239;BME280;44037;55.638;37.356;2023-01-15T12:35:36;99556.16;;;0.11;76.50
58239;BME280;44037;55.638;37.356;2023-01-15T12:38:11;99559.44;;;0.08;76.78
58239;BME280;44037;55.638;37.356;2023-01-15T12:40:44;99566.91;;;0.05;76.59
58239;BME280;44037;55.638;37.356;2023-01-15T12:43:19;99561.66;;;0.02;76.43
58239;BME280;44037;55.638;37.356;2023-01-15T12:46:09;99568.38;;;0.00;76.76
58239;BME280;44037;55.638;37.356;2023-01-15T12:48:44;99574.25;;;-0.01;77.08
58239;BME280;44037;55.638;37.356;2023-01-15T12:51:14;99572.50;;;-0.02;77.02
58239;BME280;44037;55.638;37.356;2023-01-15T12:53:50;99587.00;;;-0.01;77.51
58239;BME280;44037;55.638;37.356;2023-01-15T12:56:23;99581.91;;;-0.01;77.60
58239;BME280;44037;55.638;37.356;2023-01-15T12:58:59;99592.78;;;-0.04;77.41
58239;BME280;44037;55.638;37.356;2023-01-15T13:01:37;99584.84;;;-0.10;77.46
58239;BME280;44037;55.638;37.356;2023-01-15T13:04:15;99588.09;;;-0.12;77.37
58239;BME280;44037;55.638;37.356;2023-01-15T13:06:46;99582.78;;;-0.17;77.42
58239;BME280;44037;55.638;37.356;2023-01-15T13:09:26;99595.50;;;-0.17;77.86
58239;BME280;44037;55.638;37.356;2023-01-15T13:11:56;99592.72;;;-0.22;77.64
58239;BME280;44037;55.638;37.356;2023-01-15T13:14:25;99590.91;;;-0.24;77.82